sensor_id;sensor_type;location;lat;lon;timestamp;P1;durP1;ratioP1;P2;durP2;ratioP2
9106;SDS011;4589;48.690;8.952;2023-05-10T00:00:13;1.40;;;1.30;;
9106;SDS011;4589;48.690;8.952;2023-05-10T00:02:39;1.40;;;1.30;;
9106;SDS011;4589;48.690;8.952;2023-05-10T00:05:05;1.40;;;1.30;;
9106;SDS011;4589;48.690;8.952;2023-05-10T00:07:31;1.70;;;1.60;;
9106;SDS011;4589;48.690;8.952;2023-05-10T00:09:58;1.87;;;1.57;;
9106;SDS011;4589;48.690;8.952;2023-05-10T00:12:23;1.60;;;1.30;;
9106;SDS011;4589;48.690;8.952;2023-05-10T00:14:49;2.13;;;1.40;;
9106;SDS011;4589;48.690;8.952;2023-05-10T00:17:14;1.33;;;1.23;;
9106;SDS011;4589;48.690;8.952;2023-05-10T00:19:40;1.90;;;1.60;;
9106;SDS011;4589;48.690;8.952;2023-05-10T00:22:05;1.40;;;1.30;;
9106;SDS011;4589;48.690;8.952;2023-05-10T00:24:31;3.40;;;1.33;;
9106;SDS011;4589;48.690;8.952;2023-05-10T00:26:57;3.47;;;1.10;;
9106;SDS011;4589;48.690;8.952;2023-05-10T00:29:23;1.20;;;1.10;;
9106;SDS011;4589;48.690;8.952;2023-05-10T00:31:49;1.30;;;1.00;;
9106;SDS011;4589;48.690;8.952;2023-05-10T00:34:15;1.07;;;0.97;;
9106;SDS011;4589;48.690;8.952;2023-05-10T00:36:41;1.40;;;1.20;;
9106;SDS011;4589;48.690;8.952;2023-05-10T00:39:07;1.23;;;1.00;;
9106;SDS011;4589;48.690;8.952;2023-05-10T00:41:32;1.63;;;1.10;;
9106;SDS011;4589;48.690;8.952;2023-05-10T00:43:58;3.87;;;0.97;;
9106;SDS011;4589;48.690;8.952;2023-05-10T00:46:24;1.53;;;1.00;;
9106;SDS011;4589;48.690;8.952;2023-05-10T00:48:50;2.33;;;1.00;;
9106;SDS011;4589;48.690;8.952;2023-05-10T00:51:16;1.23;;;0.90;;
9106;SDS011;4589;48.690;8.952;2023-05-10T00:53:42;1.77;;;0.93;;
9106;SDS011;4589;48.690;8.952;2023-05-10T00:56:10;1.00;;;0.90;;
9106;SDS011;4589;48.690;8.952;2023-05-10T00:58:37;1.20;;;0.90;;
9106;SDS011;4589;48.690;8.952;2023-05-10T01:01:03;1.57;;;1.40;;
9106;SDS011;4589;48.690;8.952;2023-05-10T01:03:29;1.00;;;0.90;;
9106;SDS011;4589;48.690;8.952;2023-05-10T01:05:56;4.27;;;1.07;;
9106;SDS011;4589;48.690;8.952;2023-05-10T01:08:22;2.40;;;1.03;;
9106;SDS011;4589;48.690;8.952;2023-05-10T01:10:48;3.33;;;1.03;;
9106;SDS011;4589;48.690;8.952;2023-05-10T01:13:16;1.47;;;0.90;;
9106;SDS011;4589;48.690;8.952;2023-05-10T01:15:53;1.70;;;1.10;;
9106;SDS011;4589;48.690;8.952;2023-05-10T01:18:19;1.10;;;0.90;;
9106;SDS011;4589;48.690;8.952;2023-05-10T01:20:47;1.00;;;0.90;;
9106;SDS011;4589;48.690;8.952;2023-05-10T01:23:28;0.90;;;0.80;;
9106;SDS011;4589;48.690;8.952;2023-05-10T01:34:35;1.63;;;1.20;;
9106;SDS011;4589;48.690;8.952;2023-05-10T01:39:44;1.87;;;1.03;;
9106;SDS011;4589;48.690;8.952;2023-05-10T01:42:16;1.00;;;0.90;;
9106;SDS011;4589;48.690;8.952;2023-05-10T01:44:48;1.90;;;0.87;;
9106;SDS011;4589;48.690;8.952;2023-05-10T01:47:34;1.10;;;1.00;;
9106;SDS011;4589;48.690;8.952;2023-05-10T01:50:04;3.00;;;1.10;;
9106;SDS011;4589;48.690;8.952;2023-05-10T01:52:42;1.63;;;1.10;;
9106;SDS011;4589;48.690;8.952;2023-05-10T01:55:14;4.40;;;1.20;;
9106;SDS011;4589;48.690;8.952;2023-05-10T01:57:42;1.07;;;0.97;;
9106;SDS011;4589;48.690;8.952;2023-05-10T02:00:09;2.23;;;1.10;;
9106;SDS011;4589;48.690;8.952;2023-05-10T02:02:38;1.30;;;1.20;;
9106;SDS011;4589;48.690;8.952;2023-05-10T02:05:07;1.23;;;1.13;;
9106;SDS011;4589;48.690;8.952;2023-05-10T02:07:34;3.60;;;1.37;;
9106;SDS011;4589;48.690;8.952;2023-05-10T02:10:02;2.53;;;1.37;;
9106;SDS011;4589;48.690;8.952;2023-05-10T02:12:32;2.00;;;1.30;;
9106;SDS011;4589;48.690;8.952;2023-05-10T02:15:02;1.50;;;1.20;;
9106;SDS011;4589;48.690;8.952;2023-05-10T02:17:30;1.10;;;1.00;;
9106;SDS011;4589;48.690;8.952;2023-05-10T02:19:57;2.10;;;1.40;;
9106;SDS011;4589;48.690;8.952;2023-05-10T02:22:24;2.13;;;1.10;;
9106;SDS011;4589;48.690;8.952;2023-05-10T02:24:52;1.50;;;1.40;;
9106;SDS011;4589;48.690;8.952;2023-05-10T02:27:19;1.10;;;0.93;;
9106;SDS011;4589;48.690;8.952;2023-05-10T02:29:47;1.40;;;1.20;;
9106;SDS011;4589;48.690;8.952;2023-05-10T02:32:15;1.30;;;1.20;;
9106;SDS011;4589;48.690;8.952;2023-05-10T02:34:42;5.73;;;1.70;;
9106;SDS011;4589;48.690;8.952;2023-05-10T02:37:10;1.77;;;1.67;;
9106;SDS011;4589;48.690;8.952;2023-05-10T02:39:38;2.70;;;1.70;;
9106;SDS011;4589;48.690;8.952;2023-05-10T02:42:08;1.77;;;1.60;;
9106;SDS011;4589;48.690;8.952;2023-05-10T02:44:40;1.60;;;1.50;;
9106;SDS011;4589;48.690;8.952;2023-05-10T02:47:06;3.10;;;1.60;;
9106;SDS011;4589;48.690;8.952;2023-05-10T02:49:32;3.87;;;1.77;;
9106;SDS011;4589;48.690;8.952;2023-05-10T02:52:00;4.23;;;2.13;;
9106;SDS011;4589;48.690;8.952;2023-05-10T02:54:30;1.50;;;1.40;;
9106;SDS011;4589;48.690;8.952;2023-05-10T02:57:00;1.93;;;1.70;;
9106;SDS011;4589;48.690;8.952;2023-05-10T02:59:29;1.80;;;1.67;;
9106;SDS011;4589;48.690;8.952;2023-05-10T03:01:55;1.97;;;1.77;;
9106;SDS011;4589;48.690;8.952;2023-05-10T03:04:21;1.70;;;1.60;;
9106;SDS011;4589;48.690;8.952;2023-05-10T03:06:47;2.30;;;1.93;;
9106;SDS011;4589;48.690;8.952;2023-05-10T03:09:13;2.00;;;1.80;;
9106;SDS011;4589;48.690;8.952;2023-05-10T03:11:55;3.13;;;1.60;;
9106;SDS011;4589;48.690;8.952;2023-05-10T03:17:15;1.83;;;1.60;;
9106;SDS011;4589;48.690;8.952;2023-05-10T03:19:51;3.90;;;1.90;;
9106;SDS011;4589;48.690;8.952;2023-05-10T03:22:27;2.93;;;1.73;;
9106;SDS011;4589;48.690;8.952;2023-05-10T03:25:12;1.80;;;1.70;;
9106;SDS011;4589;48.690;8.952;2023-05-10T03:27:41;2.10;;;1.90;;
9106;SDS011;4589;48.690;8.952;2023-05-10T03:30:10;1.50;;;1.40;;
9106;SDS011;4589;48.690;8.952;2023-05-10T03:32:37;2.60;;;2.10;;
9106;SDS011;4589;48.690;8.952;2023-05-10T03:35:07;2.30;;;1.50;;
9106;SDS011;4589;48.690;8.952;2023-05-10T03:37:33;2.10;;;1.87;;
9106;SDS011;4589;48.690;8.952;2023-05-10T03:39:59;2.10;;;1.90;;
9106;SDS011;4589;48.690;8.952;2023-05-10T03:42:25;3.73;;;2.17;;
9106;SDS011;4589;48.690;8.952;2023-05-10T03:44:51;5.43;;;2.07;;
9106;SDS011;4589;48.690;8.952;2023-05-10T03:47:16;3.60;;;2.10;;
9106;SDS011;4589;48.690;8.952;2023-05-10T03:49:42;1.90;;;1.70;;
9106;SDS011;4589;48.690;8.952;2023-05-10T03:52:08;2.43;;;2.23;;
9106;SDS011;4589;48.690;8.952;2023-05-10T03:54:33;2.30;;;2.10;;
9106;SDS011;4589;48.690;8.952;2023-05-10T03:56:59;2.27;;;2.07;;
9106;SDS011;4589;48.690;8.952;2023-05-10T03:59:25;2.03;;;1.83;;
9106;SDS011;4589;48.690;8.952;2023-05-10T04:01:51;2.00;;;1.90;;
9106;SDS011;4589;48.690;8.952;2023-05-10T04:04:17;2.20;;;2.00;;
9106;SDS011;4589;48.690;8.952;2023-05-10T04:06:45;3.40;;;2.27;;
9106;SDS011;4589;48.690;8.952;2023-05-10T04:09:11;1.77;;;1.67;;
9106;SDS011;4589;48.690;8.952;2023-05-10T04:11:37;2.33;;;1.70;;
9106;SDS011;4589;48.690;8.952;2023-05-10T04:14:02;1.97;;;1.60;;
9106;SDS011;4589;48.690;8.952;2023-05-10T04:16:28;1.77;;;1.67;;
9106;SDS011;4589;48.690;8.952;2023-05-10T04:18:54;3.57;;;1.90;;
9106;SDS011;4589;48.690;8.952;2023-05-10T04:21:20;2.30;;;2.10;;
9106;SDS011;4589;48.690;8.952;2023-05-10T04:23:46;1.80;;;1.70;;
9106;SDS011;4589;48.690;8.952;2023-05-10T04:26:12;4.10;;;1.80;;
9106;SDS011;4589;48.690;8.952;2023-05-10T04:28:38;2.57;;;2.00;;
9106;SDS011;4589;48.690;8.952;2023-05-10T04:31:04;1.63;;;1.50;;
9106;SDS011;4589;48.690;8.952;2023-05-10T04:33:31;2.00;;;1.80;;
9106;SDS011;4589;48.690;8.952;2023-05-10T04:35:57;2.37;;;2.00;;
9106;SDS011;4589;48.690;8.952;2023-05-10T04:38:23;2.20;;;2.00;;
9106;SDS011;4589;48.690;8.952;2023-05-10T04:40:49;2.27;;;1.77;;
9106;SDS011;4589;48.690;8.952;2023-05-10T04:43:15;2.70;;;2.03;;
9106;SDS011;4589;48.690;8.952;2023-05-10T04:45:40;2.17;;;1.80;;
9106;SDS011;4589;48.690;8.952;2023-05-10T04:48:06;2.80;;;2.17;;
9106;SDS011;4589;48.690;8.952;2023-05-10T04:50:32;3.80;;;2.43;;
9106;SDS011;4589;48.690;8.952;2023-05-10T04:52:58;3.13;;;2.30;;
9106;SDS011;4589;48.690;8.952;2023-05-10T04:55:24;2.67;;;2.27;;
9106;SDS011;4589;48.690;8.952;2023-05-10T04:57:51;2.60;;;2.40;;
9106;SDS011;4589;48.690;8.952;2023-05-10T05:00:17;7.13;;;2.93;;
9106;SDS011;4589;48.690;8.952;2023-05-10T05:02:43;2.93;;;2.63;;
9106;SDS011;4589;48.690;8.952;2023-05-10T05:05:10;6.07;;;2.57;;
9106;SDS011;4589;48.690;8.952;2023-05-10T05:07:38;2.53;;;2.33;;
9106;SDS011;4589;48.690;8.952;2023-05-10T05:10:05;2.20;;;2.10;;
9106;SDS011;4589;48.690;8.952;2023-05-10T05:12:32;3.90;;;1.87;;
9106;SDS011;4589;48.690;8.952;2023-05-10T05:14:57;6.87;;;2.60;;
9106;SDS011;4589;48.690;8.952;2023-05-10T05:17:23;4.37;;;2.40;;
9106;SDS011;4589;48.690;8.952;2023-05-10T05:19:49;2.40;;;2.20;;
9106;SDS011;4589;48.690;8.952;2023-05-10T05:22:14;3.03;;;2.20;;
9106;SDS011;4589;48.690;8.952;2023-05-10T05:24:40;2.83;;;2.53;;
9106;SDS011;4589;48.690;8.952;2023-05-10T05:27:05;2.90;;;2.60;;
9106;SDS011;4589;48.690;8.952;2023-05-10T05:29:32;2.70;;;2.50;;
9106;SDS011;4589;48.690;8.952;2023-05-10T05:31:58;2.80;;;2.30;;
9106;SDS011;4589;48.690;8.952;2023-05-10T05:34:24;3.20;;;2.87;;
9106;SDS011;4589;48.690;8.952;2023-05-10T05:36:50;3.50;;;2.87;;
9106;SDS011;4589;48.690;8.952;2023-05-10T05:39:15;3.00;;;2.70;;
9106;SDS011;4589;48.690;8.952;2023-05-10T05:41:41;3.50;;;2.67;;
9106;SDS011;4589;48.690;8.952;2023-05-10T05:44:07;3.40;;;3.10;;
9106;SDS011;4589;48.690;8.952;2023-05-10T05:46:33;3.00;;;2.20;;
9106;SDS011;4589;48.690;8.952;2023-05-10T05:48:58;5.33;;;2.50;;
9106;SDS011;4589;48.690;8.952;2023-05-10T05:51:24;4.47;;;3.20;;
9106;SDS011;4589;48.690;8.952;2023-05-10T05:53:50;2.30;;;2.10;;
9106;SDS011;4589;48.690;8.952;2023-05-10T05:56:16;6.07;;;3.03;;
9106;SDS011;4589;48.690;8.952;2023-05-10T05:58:49;2.67;;;2.47;;
9106;SDS011;4589;48.690;8.952;2023-05-10T06:01:17;2.77;;;2.40;;
9106;SDS011;4589;48.690;8.952;2023-05-10T06:03:43;2.40;;;2.20;;
9106;SDS011;4589;48.690;8.952;2023-05-10T06:06:09;3.00;;;2.70;;
9106;SDS011;4589;48.690;8.952;2023-05-10T06:08:34;3.23;;;2.40;;
9106;SDS011;4589;48.690;8.952;2023-05-10T06:11:00;3.53;;;2.57;;
9106;SDS011;4589;48.690;8.952;2023-05-10T06:13:26;2.50;;;2.30;;
9106;SDS011;4589;48.690;8.952;2023-05-10T06:15:57;2.40;;;2.20;;
9106;SDS011;4589;48.690;8.952;2023-05-10T06:18:23;2.67;;;2.47;;
9106;SDS011;4589;48.690;8.952;2023-05-10T06:20:49;2.70;;;2.50;;
9106;SDS011;4589;48.690;8.952;2023-05-10T06:23:15;4.70;;;2.63;;
9106;SDS011;4589;48.690;8.952;2023-05-10T06:25:40;4.20;;;2.70;;
9106;SDS011;4589;48.690;8.952;2023-05-10T06:28:06;2.80;;;2.60;;
9106;SDS011;4589;48.690;8.952;2023-05-10T06:30:32;6.13;;;3.40;;
9106;SDS011;4589;48.690;8.952;2023-05-10T06:32:58;3.23;;;2.57;;
9106;SDS011;4589;48.690;8.952;2023-05-10T06:35:24;4.20;;;3.10;;
9106;SDS011;4589;48.690;8.952;2023-05-10T06:37:50;3.93;;;2.63;;
9106;SDS011;4589;48.690;8.952;2023-05-10T06:40:16;2.90;;;2.63;;
9106;SDS011;4589;48.690;8.952;2023-05-10T06:42:42;3.00;;;2.13;;
9106;SDS011;4589;48.690;8.952;2023-05-10T06:45:09;2.73;;;2.27;;
9106;SDS011;4589;48.690;8.952;2023-05-10T06:47:35;3.43;;;2.60;;
9106;SDS011;4589;48.690;8.952;2023-05-10T06:50:01;3.63;;;3.10;;
9106;SDS011;4589;48.690;8.952;2023-05-10T06:52:27;3.73;;;2.40;;
9106;SDS011;4589;48.690;8.952;2023-05-10T06:54:53;3.37;;;2.30;;
9106;SDS011;4589;48.690;8.952;2023-05-10T06:57:18;2.60;;;2.17;;
9106;SDS011;4589;48.690;8.952;2023-05-10T06:59:44;1.97;;;1.87;;
9106;SDS011;4589;48.690;8.952;2023-05-10T07:02:10;3.50;;;2.20;;
9106;SDS011;4589;48.690;8.952;2023-05-10T07:04:36;2.40;;;1.93;;
9106;SDS011;4589;48.690;8.952;2023-05-10T07:07:02;2.17;;;1.90;;
9106;SDS011;4589;48.690;8.952;2023-05-10T07:09:27;5.83;;;2.30;;
9106;SDS011;4589;48.690;8.952;2023-05-10T07:11:53;6.60;;;1.97;;
9106;SDS011;4589;48.690;8.952;2023-05-10T07:14:18;2.50;;;2.30;;
9106;SDS011;4589;48.690;8.952;2023-05-10T07:16:44;2.77;;;1.83;;
9106;SDS011;4589;48.690;8.952;2023-05-10T07:19:10;2.33;;;2.13;;
9106;SDS011;4589;48.690;8.952;2023-05-10T07:21:36;13.33;;;2.20;;
9106;SDS011;4589;48.690;8.952;2023-05-10T07:24:02;1.80;;;1.70;;
9106;SDS011;4589;48.690;8.952;2023-05-10T07:26:27;2.90;;;2.13;;
9106;SDS011;4589;48.690;8.952;2023-05-10T07:28:53;2.90;;;1.90;;
9106;SDS011;4589;48.690;8.952;2023-05-10T07:31:19;1.93;;;1.83;;
9106;SDS011;4589;48.690;8.952;2023-05-10T07:33:45;2.00;;;1.80;;
9106;SDS011;4589;48.690;8.952;2023-05-10T07:36:12;5.93;;;1.60;;
9106;SDS011;4589;48.690;8.952;2023-05-10T07:38:38;1.70;;;1.60;;
9106;SDS011;4589;48.690;8.952;2023-05-10T07:41:04;2.20;;;1.60;;
9106;SDS011;4589;48.690;8.952;2023-05-10T07:43:30;1.83;;;1.73;;
9106;SDS011;4589;48.690;8.952;2023-05-10T07:45:56;1.90;;;1.70;;
9106;SDS011;4589;48.690;8.952;2023-05-10T07:48:22;1.70;;;1.60;;
9106;SDS011;4589;48.690;8.952;2023-05-10T07:50:48;3.07;;;1.23;;
9106;SDS011;4589;48.690;8.952;2023-05-10T07:53:14;1.40;;;1.30;;
9106;SDS011;4589;48.690;8.952;2023-05-10T07:55:40;1.60;;;1.43;;
9106;SDS011;4589;48.690;8.952;2023-05-10T07:58:06;1.80;;;1.30;;
9106;SDS011;4589;48.690;8.952;2023-05-10T08:00:32;1.50;;;1.13;;
9106;SDS011;4589;48.690;8.952;2023-05-10T08:02:57;2.27;;;1.17;;
9106;SDS011;4589;48.690;8.952;2023-05-10T08:05:23;1.47;;;1.37;;
9106;SDS011;4589;48.690;8.952;2023-05-10T08:07:49;1.50;;;1.20;;
9106;SDS011;4589;48.690;8.952;2023-05-10T08:10:14;1.40;;;1.30;;
9106;SDS011;4589;48.690;8.952;2023-05-10T08:12:41;2.23;;;1.30;;
9106;SDS011;4589;48.690;8.952;2023-05-10T08:15:07;1.53;;;1.33;;
9106;SDS011;4589;48.690;8.952;2023-05-10T08:17:33;3.53;;;1.10;;
9106;SDS011;4589;48.690;8.952;2023-05-10T08:19:59;2.27;;;1.10;;
9106;SDS011;4589;48.690;8.952;2023-05-10T08:22:25;1.17;;;0.90;;
9106;SDS011;4589;48.690;8.952;2023-05-10T08:24:51;1.30;;;1.20;;
9106;SDS011;4589;48.690;8.952;2023-05-10T08:27:17;1.20;;;0.90;;
9106;SDS011;4589;48.690;8.952;2023-05-10T08:29:42;1.40;;;1.00;;
9106;SDS011;4589;48.690;8.952;2023-05-10T08:32:08;1.80;;;1.10;;
9106;SDS011;4589;48.690;8.952;2023-05-10T08:34:34;2.47;;;1.10;;
9106;SDS011;4589;48.690;8.952;2023-05-10T08:37:00;1.20;;;1.10;;
9106;SDS011;4589;48.690;8.952;2023-05-10T08:39:27;1.77;;;1.20;;
9106;SDS011;4589;48.690;8.952;2023-05-10T08:41:53;1.20;;;1.00;;
9106;SDS011;4589;48.690;8.952;2023-05-10T08:44:23;1.00;;;0.83;;
9106;SDS011;4589;48.690;8.952;2023-05-10T08:46:49;1.63;;;0.90;;
9106;SDS011;4589;48.690;8.952;2023-05-10T08:49:19;1.10;;;0.90;;
9106;SDS011;4589;48.690;8.952;2023-05-10T08:51:47;1.90;;;1.10;;
9106;SDS011;4589;48.690;8.952;2023-05-10T08:54:16;1.53;;;1.00;;
9106;SDS011;4589;48.690;8.952;2023-05-10T08:56:42;1.27;;;0.80;;
9106;SDS011;4589;48.690;8.952;2023-05-10T08:59:08;2.37;;;0.90;;
9106;SDS011;4589;48.690;8.952;2023-05-10T09:01:35;1.00;;;0.90;;
9106;SDS011;4589;48.690;8.952;2023-05-10T09:04:01;1.50;;;1.00;;
9106;SDS011;4589;48.690;8.952;2023-05-10T09:06:29;0.90;;;0.80;;
9106;SDS011;4589;48.690;8.952;2023-05-10T09:08:54;2.90;;;1.00;;
9106;SDS011;4589;48.690;8.952;2023-05-10T09:11:21;1.00;;;0.80;;
9106;SDS011;4589;48.690;8.952;2023-05-10T09:13:47;2.07;;;0.90;;
9106;SDS011;4589;48.690;8.952;2023-05-10T09:16:14;1.60;;;1.10;;
9106;SDS011;4589;48.690;8.952;2023-05-10T09:18:40;2.27;;;1.00;;
9106;SDS011;4589;48.690;8.952;2023-05-10T09:21:06;1.20;;;0.90;;
9106;SDS011;4589;48.690;8.952;2023-05-10T09:23:32;1.30;;;0.87;;
9106;SDS011;4589;48.690;8.952;2023-05-10T09:26:04;1.10;;;0.83;;
9106;SDS011;4589;48.690;8.952;2023-05-10T09:28:34;1.03;;;0.90;;
9106;SDS011;4589;48.690;8.952;2023-05-10T09:31:14;5.00;;;0.90;;
9106;SDS011;4589;48.690;8.952;2023-05-10T09:33:43;1.43;;;0.90;;
9106;SDS011;4589;48.690;8.952;2023-05-10T09:36:12;1.57;;;0.90;;
9106;SDS011;4589;48.690;8.952;2023-05-10T09:38:48;1.00;;;0.80;;
9106;SDS011;4589;48.690;8.952;2023-05-10T09:41:16;1.00;;;0.80;;
9106;SDS011;4589;48.690;8.952;2023-05-10T09:43:43;0.90;;;0.70;;
9106;SDS011;4589;48.690;8.952;2023-05-10T09:46:09;3.10;;;1.30;;
9106;SDS011;4589;48.690;8.952;2023-05-10T09:48:39;2.47;;;1.10;;
9106;SDS011;4589;48.690;8.952;2023-05-10T09:51:10;1.10;;;0.90;;
9106;SDS011;4589;48.690;8.952;2023-05-10T09:53:43;1.17;;;0.70;;
9106;SDS011;4589;48.690;8.952;2023-05-10T09:56:09;1.97;;;0.97;;
9106;SDS011;4589;48.690;8.952;2023-05-10T09:58:36;1.50;;;0.80;;
9106;SDS011;4589;48.690;8.952;2023-05-10T10:01:03;1.00;;;0.80;;
9106;SDS011;4589;48.690;8.952;2023-05-10T10:03:28;1.10;;;0.80;;
9106;SDS011;4589;48.690;8.952;2023-05-10T10:05:55;1.50;;;0.90;;
9106;SDS011;4589;48.690;8.952;2023-05-10T10:08:21;1.00;;;0.83;;
9106;SDS011;4589;48.690;8.952;2023-05-10T10:10:47;1.10;;;1.00;;
9106;SDS011;4589;48.690;8.952;2023-05-10T10:13:13;1.03;;;0.93;;
9106;SDS011;4589;48.690;8.952;2023-05-10T10:15:39;1.90;;;1.37;;
9106;SDS011;4589;48.690;8.952;2023-05-10T10:18:06;1.40;;;1.00;;
9106;SDS011;4589;48.690;8.952;2023-05-10T10:20:36;2.93;;;1.07;;
9106;SDS011;4589;48.690;8.952;2023-05-10T10:23:02;1.90;;;1.03;;
9106;SDS011;4589;48.690;8.952;2023-05-10T10:25:28;1.00;;;0.80;;
9106;SDS011;4589;48.690;8.952;2023-05-10T10:30:35;1.77;;;0.80;;
9106;SDS011;4589;48.690;8.952;2023-05-10T10:35:53;1.20;;;0.90;;
9106;SDS011;4589;48.690;8.952;2023-05-10T10:38:20;1.13;;;0.90;;
9106;SDS011;4589;48.690;8.952;2023-05-10T10:40:46;1.50;;;1.10;;
9106;SDS011;4589;48.690;8.952;2023-05-10T10:43:28;2.40;;;1.20;;
9106;SDS011;4589;48.690;8.952;2023-05-10T10:48:35;1.30;;;1.07;;
9106;SDS011;4589;48.690;8.952;2023-05-10T10:51:00;4.43;;;1.13;;
9106;SDS011;4589;48.690;8.952;2023-05-10T10:53:27;1.40;;;0.93;;
9106;SDS011;4589;48.690;8.952;2023-05-10T10:56:14;2.30;;;0.90;;
9106;SDS011;4589;48.690;8.952;2023-05-10T10:58:40;1.27;;;1.17;;
9106;SDS011;4589;48.690;8.952;2023-05-10T11:01:16;1.87;;;0.90;;
9106;SDS011;4589;48.690;8.952;2023-05-10T11:08:59;1.10;;;0.80;;
9106;SDS011;4589;48.690;8.952;2023-05-10T11:11:48;1.20;;;1.10;;
9106;SDS011;4589;48.690;8.952;2023-05-10T11:14:18;2.00;;;1.40;;
9106;SDS011;4589;48.690;8.952;2023-05-10T11:16:46;1.50;;;1.07;;
9106;SDS011;4589;48.690;8.952;2023-05-10T11:19:15;1.77;;;0.93;;
9106;SDS011;4589;48.690;8.952;2023-05-10T11:21:52;2.03;;;1.20;;
9106;SDS011;4589;48.690;8.952;2023-05-10T11:24:40;1.90;;;1.17;;
9106;SDS011;4589;48.690;8.952;2023-05-10T11:27:21;1.13;;;1.00;;
9106;SDS011;4589;48.690;8.952;2023-05-10T11:29:51;1.00;;;0.90;;
9106;SDS011;4589;48.690;8.952;2023-05-10T11:32:16;2.27;;;1.00;;
9106;SDS011;4589;48.690;8.952;2023-05-10T11:34:46;2.90;;;1.20;;
9106;SDS011;4589;48.690;8.952;2023-05-10T11:37:13;1.40;;;1.00;;
9106;SDS011;4589;48.690;8.952;2023-05-10T11:39:38;1.77;;;1.00;;
9106;SDS011;4589;48.690;8.952;2023-05-10T11:42:11;1.47;;;1.10;;
9106;SDS011;4589;48.690;8.952;2023-05-10T11:44:37;1.87;;;1.10;;
9106;SDS011;4589;48.690;8.952;2023-05-10T11:47:03;1.60;;;1.00;;
9106;SDS011;4589;48.690;8.952;2023-05-10T11:49:28;1.80;;;1.10;;
9106;SDS011;4589;48.690;8.952;2023-05-10T11:52:03;1.30;;;1.00;;
9106;SDS011;4589;48.690;8.952;2023-05-10T11:54:31;4.23;;;1.30;;
9106;SDS011;4589;48.690;8.952;2023-05-10T11:56:59;2.30;;;1.10;;
9106;SDS011;4589;48.690;8.952;2023-05-10T11:59:25;2.90;;;1.00;;
9106;SDS011;4589;48.690;8.952;2023-05-10T12:01:51;2.77;;;1.37;;
9106;SDS011;4589;48.690;8.952;2023-05-10T12:04:17;3.33;;;1.30;;
9106;SDS011;4589;48.690;8.952;2023-05-10T12:06:42;1.47;;;1.00;;
9106;SDS011;4589;48.690;8.952;2023-05-10T12:09:09;1.43;;;1.00;;
9106;SDS011;4589;48.690;8.952;2023-05-10T12:11:38;1.77;;;1.20;;
9106;SDS011;4589;48.690;8.952;2023-05-10T12:14:05;6.63;;;1.40;;
9106;SDS011;4589;48.690;8.952;2023-05-10T12:16:31;1.20;;;1.03;;
9106;SDS011;4589;48.690;8.952;2023-05-10T12:18:58;6.07;;;1.57;;
9106;SDS011;4589;48.690;8.952;2023-05-10T12:21:25;2.10;;;1.27;;
9106;SDS011;4589;48.690;8.952;2023-05-10T12:23:53;1.87;;;1.30;;
9106;SDS011;4589;48.690;8.952;2023-05-10T12:26:23;2.70;;;1.00;;
9106;SDS011;4589;48.690;8.952;2023-05-10T12:28:51;1.73;;;1.23;;
9106;SDS011;4589;48.690;8.952;2023-05-10T12:31:17;2.03;;;1.50;;
9106;SDS011;4589;48.690;8.952;2023-05-10T12:33:44;3.53;;;1.27;;
9106;SDS011;4589;48.690;8.952;2023-05-10T12:36:11;3.10;;;1.30;;
9106;SDS011;4589;48.690;8.952;2023-05-10T12:38:42;2.07;;;1.20;;
9106;SDS011;4589;48.690;8.952;2023-05-10T12:41:09;1.70;;;1.20;;
9106;SDS011;4589;48.690;8.952;2023-05-10T12:43:36;2.07;;;1.27;;
9106;SDS011;4589;48.690;8.952;2023-05-10T12:46:09;6.13;;;1.13;;
9106;SDS011;4589;48.690;8.952;2023-05-10T12:48:37;1.67;;;1.10;;
9106;SDS011;4589;48.690;8.952;2023-05-10T12:51:04;1.20;;;1.10;;
9106;SDS011;4589;48.690;8.952;2023-05-10T12:53:30;2.93;;;1.50;;
9106;SDS011;4589;48.690;8.952;2023-05-10T12:55:56;2.57;;;1.70;;
9106;SDS011;4589;48.690;8.952;2023-05-10T12:58:22;1.73;;;1.13;;
9106;SDS011;4589;48.690;8.952;2023-05-10T13:00:48;2.60;;;1.50;;
9106;SDS011;4589;48.690;8.952;2023-05-10T13:03:16;1.20;;;1.10;;
9106;SDS011;4589;48.690;8.952;2023-05-10T13:05:42;3.00;;;1.27;;
9106;SDS011;4589;48.690;8.952;2023-05-10T13:08:07;3.83;;;1.27;;
9106;SDS011;4589;48.690;8.952;2023-05-10T13:10:33;1.90;;;1.10;;
9106;SDS011;4589;48.690;8.952;2023-05-10T13:12:59;1.73;;;0.90;;
9106;SDS011;4589;48.690;8.952;2023-05-10T13:15:25;1.20;;;1.10;;
9106;SDS011;4589;48.690;8.952;2023-05-10T13:17:51;1.70;;;1.10;;
9106;SDS011;4589;48.690;8.952;2023-05-10T13:20:17;3.57;;;1.33;;
9106;SDS011;4589;48.690;8.952;2023-05-10T13:22:43;2.93;;;1.40;;
9106;SDS011;4589;48.690;8.952;2023-05-10T13:25:10;3.10;;;1.50;;
9106;SDS011;4589;48.690;8.952;2023-05-10T13:27:36;1.90;;;1.17;;
9106;SDS011;4589;48.690;8.952;2023-05-10T13:30:02;2.10;;;1.20;;
9106;SDS011;4589;48.690;8.952;2023-05-10T13:32:29;1.80;;;1.20;;
9106;SDS011;4589;48.690;8.952;2023-05-10T13:34:54;3.10;;;1.33;;
9106;SDS011;4589;48.690;8.952;2023-05-10T13:37:20;1.50;;;1.40;;
9106;SDS011;4589;48.690;8.952;2023-05-10T13:39:46;3.93;;;1.10;;
9106;SDS011;4589;48.690;8.952;2023-05-10T13:42:12;1.40;;;1.30;;
9106;SDS011;4589;48.690;8.952;2023-05-10T13:44:38;1.70;;;1.23;;
9106;SDS011;4589;48.690;8.952;2023-05-10T13:47:04;1.80;;;1.30;;
9106;SDS011;4589;48.690;8.952;2023-05-10T13:49:30;3.17;;;1.50;;
9106;SDS011;4589;48.690;8.952;2023-05-10T13:51:55;1.20;;;1.10;;
9106;SDS011;4589;48.690;8.952;2023-05-10T13:54:21;2.67;;;1.20;;
9106;SDS011;4589;48.690;8.952;2023-05-10T13:56:47;1.60;;;1.23;;
9106;SDS011;4589;48.690;8.952;2023-05-10T13:59:14;2.60;;;1.40;;
9106;SDS011;4589;48.690;8.952;2023-05-10T14:01:43;3.57;;;1.30;;
9106;SDS011;4589;48.690;8.952;2023-05-10T14:04:08;2.27;;;1.17;;
9106;SDS011;4589;48.690;8.952;2023-05-10T14:06:38;1.50;;;1.10;;
9106;SDS011;4589;48.690;8.952;2023-05-10T14:09:04;1.23;;;1.10;;
9106;SDS011;4589;48.690;8.952;2023-05-10T14:11:29;1.43;;;1.13;;
9106;SDS011;4589;48.690;8.952;2023-05-10T14:13:55;2.60;;;1.30;;
9106;SDS011;4589;48.690;8.952;2023-05-10T14:16:20;1.57;;;1.40;;
9106;SDS011;4589;48.690;8.952;2023-05-10T14:18:46;2.53;;;1.30;;
9106;SDS011;4589;48.690;8.952;2023-05-10T14:21:12;2.70;;;1.13;;
9106;SDS011;4589;48.690;8.952;2023-05-10T14:23:39;2.50;;;1.50;;
9106;SDS011;4589;48.690;8.952;2023-05-10T14:26:05;1.20;;;1.03;;
9106;SDS011;4589;48.690;8.952;2023-05-10T14:28:31;4.97;;;1.67;;
9106;SDS011;4589;48.690;8.952;2023-05-10T14:30:57;1.57;;;1.30;;
9106;SDS011;4589;48.690;8.952;2023-05-10T14:33:23;3.33;;;1.10;;
9106;SDS011;4589;48.690;8.952;2023-05-10T14:35:50;1.30;;;1.10;;
9106;SDS011;4589;48.690;8.952;2023-05-10T14:38:16;1.30;;;0.90;;
9106;SDS011;4589;48.690;8.952;2023-05-10T14:40:41;1.57;;;1.33;;
9106;SDS011;4589;48.690;8.952;2023-05-10T14:43:08;1.20;;;0.90;;
9106;SDS011;4589;48.690;8.952;2023-05-10T14:45:34;1.60;;;1.00;;
9106;SDS011;4589;48.690;8.952;2023-05-10T14:48:00;1.30;;;1.00;;
9106;SDS011;4589;48.690;8.952;2023-05-10T14:50:29;1.10;;;0.90;;
9106;SDS011;4589;48.690;8.952;2023-05-10T14:52:55;1.23;;;1.13;;
9106;SDS011;4589;48.690;8.952;2023-05-10T14:55:21;1.20;;;1.07;;
9106;SDS011;4589;48.690;8.952;2023-05-10T14:57:46;1.50;;;1.10;;
9106;SDS011;4589;48.690;8.952;2023-05-10T15:00:14;3.20;;;1.40;;
9106;SDS011;4589;48.690;8.952;2023-05-10T15:02:40;1.47;;;1.37;;
9106;SDS011;4589;48.690;8.952;2023-05-10T15:05:06;1.57;;;1.27;;
9106;SDS011;4589;48.690;8.952;2023-05-10T15:07:32;5.37;;;2.33;;
9106;SDS011;4589;48.690;8.952;2023-05-10T15:09:58;6.50;;;1.40;;
9106;SDS011;4589;48.690;8.952;2023-05-10T15:12:23;3.17;;;1.27;;
9106;SDS011;4589;48.690;8.952;2023-05-10T15:14:49;1.20;;;0.87;;
9106;SDS011;4589;48.690;8.952;2023-05-10T15:17:15;1.67;;;1.13;;
9106;SDS011;4589;48.690;8.952;2023-05-10T15:19:41;1.10;;;1.00;;
9106;SDS011;4589;48.690;8.952;2023-05-10T15:22:07;1.50;;;1.17;;
9106;SDS011;4589;48.690;8.952;2023-05-10T15:24:33;1.50;;;1.00;;
9106;SDS011;4589;48.690;8.952;2023-05-10T15:26:59;2.20;;;1.00;;
9106;SDS011;4589;48.690;8.952;2023-05-10T15:29:25;1.40;;;0.80;;
9106;SDS011;4589;48.690;8.952;2023-05-10T15:31:51;1.30;;;1.03;;
9106;SDS011;4589;48.690;8.952;2023-05-10T15:34:17;1.50;;;1.10;;
9106;SDS011;4589;48.690;8.952;2023-05-10T15:36:43;1.60;;;1.10;;
9106;SDS011;4589;48.690;8.952;2023-05-10T15:39:10;2.30;;;1.20;;
9106;SDS011;4589;48.690;8.952;2023-05-10T15:41:36;1.53;;;1.03;;